Time;durP1;ratioP1;P1;durP2;ratioP2;P2;SDS_P1;SDS_P2;PMS_P1;PMS_P2;Temp;Humidity;BMP_temperature;BMP_pressure;BME280_temperature;BME280_humidity;BME280_pressure;Samples;Min_cycle;Max_cycle;Signal;HPM_P1;HPM_P2
2022/06/13 00:01:31;;;;;;;15.77;14.38;;;;;;;;;;5010638;28;20444;-75
2022/06/13 00:03:58;;;;;;;15.70;14.15;;;;;;;;;;5017976;28;20038;-76
2022/06/13 00:06:24;;;;;;;19.92;14.57;;;;;;;;;;5010030;28;20096;-74
2022/06/13 00:08:50;;;;;;;14.63;13.30;;;;;;;;;;5012473;28;20037;-75
2022/06/13 00:11:25;;;;;;;14.45;12.98;;;;;;;;;;5010842;28;20077;-75
2022/06/13 00:13:53;;;;;;;14.82;13.23;;;;;;;;;;5015790;28;20128;-75
2022/06/13 00:16:19;;;;;;;14.18;12.88;;;;;;;;;;5011386;28;20068;-75
2022/06/13 00:18:47;;;;;;;14.90;13.60;;;;;;;;;;5010606;28;20045;-74
2022/06/13 00:21:19;;;;;;;16.00;13.20;;;;;;;;;;5010624;28;20041;-74
2022/06/13 00:23:46;;;;;;;15.93;13.65;;;;;;;;;;5008809;28;20077;-74
2022/06/13 00:26:13;;;;;;;14.20;12.85;;;;;;;;;;5012235;28;20570;-74
2022/06/13 00:28:39;;;;;;;14.85;13.65;;;;;;;;;;5017758;28;20045;-75
2022/06/13 00:31:04;;;;;;;15.15;13.05;;;;;;;;;;5009611;28;20034;-75
2022/06/13 00:33:30;;;;;;;14.95;13.50;;;;;;;;;;5015919;28;20042;-75
2022/06/13 00:35:56;;;;;;;15.68;14.18;;;;;;;;;;5012298;28;20160;-75
2022/06/13 00:38:21;;;;;;;14.55;13.25;;;;;;;;;;5013455;28;20065;-74
2022/06/13 00:40:48;;;;;;;14.00;12.88;;;;;;;;;;5013451;28;20033;-75
2022/06/13 00:43:15;;;;;;;13.60;12.60;;;;;;;;;;5010454;28;20026;-74
2022/06/13 00:45:41;;;;;;;14.05;12.98;;;;;;;;;;5020901;28;20120;-74
2022/06/13 00:48:12;;;;;;;13.93;12.90;;;;;;;;;;5013670;28;20026;-74
2022/06/13 00:50:43;;;;;;;14.05;12.95;;;;;;;;;;5012765;28;20017;-75
2022/06/13 00:53:19;;;;;;;13.63;12.63;;;;;;;;;;5017432;28;20425;-74
2022/06/13 00:55:56;;;;;;;13.57;12.52;;;;;;;;;;5020358;28;20041;-74
2022/06/13 00:58:25;;;;;;;12.88;11.85;;;;;;;;;;5023396;28;20112;-74
2022/06/13 01:00:54;;;;;;;17.13;13.52;;;;;;;;;;5016306;28;20043;-75
2022/06/13 01:03:21;;;;;;;13.85;12.60;;;;;;;;;;5016458;28;20646;-74
2022/06/13 01:05:50;;;;;;;13.88;12.77;;;;;;;;;;5017394;28;20408;-73
2022/06/13 01:08:17;;;;;;;14.38;12.93;;;;;;;;;;5017597;28;20045;-74
2022/06/13 01:13:57;;;;;;;14.10;12.80;;;;;;;;;;5015729;28;20041;-75
2022/06/13 01:16:34;;;;;;;13.70;12.45;;;;;;;;;;5010154;28;20114;-75
2022/06/13 01:19:28;;;;;;;13.23;11.82;;;;;;;;;;5010041;28;20397;-74
2022/06/13 01:22:47;;;;;;;13.98;12.82;;;;;;;;;;5017932;28;20038;-74
2022/06/13 01:25:24;;;;;;;14.68;13.38;;;;;;;;;;4971908;28;20125;-74
2022/06/13 01:27:52;;;;;;;15.18;13.88;;;;;;;;;;4976249;28;20457;-75
2022/06/13 01:30:42;;;;;;;15.77;14.27;;;;;;;;;;4975419;28;20704;-75
2022/06/13 01:33:20;;;;;;;15.27;13.88;;;;;;;;;;4972773;28;20560;-74
2022/06/13 01:35:54;;;;;;;16.10;14.38;;;;;;;;;;4969581;28;20055;-74
2022/06/13 01:38:34;;;;;;;14.95;13.65;;;;;;;;;;4976878;28;20051;-73
2022/06/13 01:41:17;;;;;;;14.70;13.43;;;;;;;;;;4981673;28;20129;-74
2022/06/13 01:43:52;;;;;;;14.27;13.18;;;;;;;;;;4971361;28;20050;-74
2022/06/13 01:46:29;;;;;;;15.23;13.73;;;;;;;;;;4973325;28;20101;-74
2022/06/13 01:49:19;;;;;;;15.15;13.80;;;;;;;;;;4972620;28;20047;-74
2022/06/13 01:52:07;;;;;;;15.23;13.75;;;;;;;;;;4969363;28;20074;-74
2022/06/13 01:54:42;;;;;;;15.52;13.88;;;;;;;;;;4973137;28;20049;-74
2022/06/13 01:57:14;;;;;;;13.80;12.73;;;;;;;;;;5008364;28;20034;-74
2022/06/13 02:00:03;;;;;;;15.15;13.63;;;;;;;;;;5015066;28;20042;-74
2022/06/13 02:02:49;;;;;;;16.48;14.98;;;;;;;;;;5014670;28;20124;-75
2022/06/13 02:05:36;;;;;;;15.70;14.27;;;;;;;;;;5013240;28;20124;-74
2022/06/13 02:08:17;;;;;;;16.95;15.25;;;;;;;;;;5017444;28;20034;-74
2022/06/13 02:10:50;;;;;;;18.10;16.27;;;;;;;;;;5014362;28;20034;-73
2022/06/13 02:13:21;;;;;;;17.77;16.08;;;;;;;;;;5010011;28;20038;-74
2022/06/13 02:15:53;;;;;;;18.13;16.20;;;;;;;;;;5018826;28;20068;-74
2022/06/13 02:18:26;;;;;;;19.05;17.20;;;;;;;;;;5016957;28;20096;-74
2022/06/13 02:20:55;;;;;;;19.48;17.55;;;;;;;;;;5005380;28;20034;-75
2022/06/13 02:23:24;;;;;;;19.50;17.40;;;;;;;;;;5015405;28;20045;-73
2022/06/13 02:26:04;;;;;;;17.73;16.20;;;;;;;;;;5019864;28;20048;-74
2022/06/13 02:28:38;;;;;;;19.15;17.08;;;;;;;;;;5025596;28;20029;-74
2022/06/13 02:31:10;;;;;;;20.77;18.48;;;;;;;;;;5011729;28;20050;-73
2022/06/13 02:33:46;;;;;;;20.65;17.92;;;;;;;;;;5014903;28;20639;-74
2022/06/13 02:36:33;;;;;;;22.95;17.40;;;;;;;;;;5028679;28;20065;-74
2022/06/13 02:39:07;;;;;;;19.95;18.02;;;;;;;;;;5024337;28;20092;-74
2022/06/13 02:41:42;;;;;;;20.45;18.33;;;;;;;;;;5011266;28;20065;-74
2022/06/13 02:44:22;;;;;;;21.25;19.15;;;;;;;;;;5018034;28;20052;-74
2022/06/13 02:46:59;;;;;;;22.38;19.63;;;;;;;;;;5016561;28;20049;-74
2022/06/13 02:49:31;;;;;;;22.63;19.75;;;;;;;;;;5018039;28;20038;-74
2022/06/13 02:52:02;;;;;;;20.70;18.48;;;;;;;;;;5005981;28;20401;-74
2022/06/13 02:54:37;;;;;;;19.35;17.52;;;;;;;;;;5009155;28;20036;-74
2022/06/13 02:57:24;;;;;;;17.67;16.02;;;;;;;;;;5014771;28;20034;-74
2022/06/13 03:00:01;;;;;;;16.20;14.70;;;;;;;;;;5016940;28;20038;-75
2022/06/13 03:02:37;;;;;;;14.30;13.20;;;;;;;;;;5009398;28;20105;-74
2022/06/13 03:05:25;;;;;;;14.25;12.98;;;;;;;;;;5011121;28;20034;-73
2022/06/13 03:08:26;;;;;;;14.07;12.73;;;;;;;;;;5015467;28;20034;-74
2022/06/13 03:11:07;;;;;;;15.07;13.75;;;;;;;;;;4986581;28;20128;-74
2022/06/13 03:13:45;;;;;;;15.48;13.88;;;;;;;;;;5008670;28;20632;-73
2022/06/13 03:16:29;;;;;;;15.85;14.45;;;;;;;;;;5015576;28;20037;-74
2022/06/13 03:19:05;;;;;;;14.93;13.55;;;;;;;;;;5011774;28;20038;-74
2022/06/13 03:21:36;;;;;;;15.50;13.70;;;;;;;;;;5017861;28;20029;-74
2022/06/13 03:24:24;;;;;;;15.00;13.40;;;;;;;;;;5012025;28;20034;-73
2022/06/13 03:26:57;;;;;;;15.77;13.50;;;;;;;;;;5010347;28;20168;-74
2022/06/13 03:29:26;;;;;;;13.95;12.90;;;;;;;;;;5009373;28;20112;-73
2022/06/13 03:31:57;;;;;;;14.32;13.18;;;;;;;;;;5012132;28;20118;-74
2022/06/13 03:34:30;;;;;;;14.98;13.02;;;;;;;;;;5011375;28;20121;-74
2022/06/13 03:37:10;;;;;;;13.30;12.07;;;;;;;;;;5011408;28;20037;-73
2022/06/13 03:39:45;;;;;;;13.25;12.20;;;;;;;;;;5009244;28;20546;-74
2022/06/13 03:42:17;;;;;;;14.38;12.95;;;;;;;;;;5016668;28;20034;-74
2022/06/13 03:44:46;;;;;;;13.45;12.05;;;;;;;;;;5010753;28;20033;-73
2022/06/13 03:47:15;;;;;;;;;;;;;;;;;;5009114;28;20077;-74
2022/06/13 03:50:16;;;;;;;14.75;12.18;;;;;;;;;;5016953;28;19931;-74
2022/06/13 03:52:47;;;;;;;13.20;11.90;;;;;;;;;;4990035;28;20033;-73
2022/06/13 03:55:22;;;;;;;13.05;11.35;;;;;;;;;;5012223;28;20058;-74
2022/06/13 03:57:54;;;;;;;12.98;11.45;;;;;;;;;;5033264;28;20030;-74
2022/06/13 04:00:25;;;;;;;12.35;11.20;;;;;;;;;;5012004;28;20100;-75
2022/06/13 04:02:53;;;;;;;12.77;11.52;;;;;;;;;;5013079;28;20091;-73
2022/06/13 04:05:22;;;;;;;12.95;11.73;;;;;;;;;;5018023;28;20674;-73
2022/06/13 04:07:48;;;;;;;13.00;11.38;;;;;;;;;;5011824;28;20453;-73
2022/06/13 04:10:16;;;;;;;12.40;11.40;;;;;;;;;;5005908;28;20537;-75
2022/06/13 04:12:47;;;;;;;11.85;10.95;;;;;;;;;;5008137;28;20393;-73
2022/06/13 04:15:16;;;;;;;12.45;11.38;;;;;;;;;;5011394;28;20112;-74
2022/06/13 04:18:01;;;;;;;12.65;11.50;;;;;;;;;;5013886;28;20490;-73
2022/06/13 04:20:40;;;;;;;14.88;12.25;;;;;;;;;;5001638;28;20057;-73
2022/06/13 04:23:18;;;;;;;12.57;11.27;;;;;;;;;;5008093;28;20040;-75
2022/06/13 04:25:49;;;;;;;12.50;11.43;;;;;;;;;;5008162;28;20037;-74
2022/06/13 04:28:28;;;;;;;12.52;11.32;;;;;;;;;;5007819;28;20045;-74
2022/06/13 04:30:56;;;;;;;12.70;10.57;;;;;;;;;;5006725;28;20029;-75
2022/06/13 04:33:52;;;;;;;11.95;10.30;;;;;;;;;;5010065;28;20735;-74
2022/06/13 04:36:19;;;;;;;11.35;10.27;;;;;;;;;;5014581;28;20072;-74
2022/06/13 04:38:49;;;;;;;11.60;10.43;;;;;;;;;;5001352;28;20065;-75
2022/06/13 04:41:16;;;;;;;11.25;10.13;;;;;;;;;;5013305;28;20037;-76
2022/06/13 04:43:46;;;;;;;11.60;10.40;;;;;;;;;;5017476;28;20089;-75
2022/06/13 04:46:18;;;;;;;10.88;9.85;;;;;;;;;;5016008;28;20034;-75
2022/06/13 04:48:46;;;;;;;11.63;10.48;;;;;;;;;;5014886;28;20076;-74
2022/06/13 04:51:16;;;;;;;13.93;10.73;;;;;;;;;;5014832;28;20042;-74
2022/06/13 04:53:41;;;;;;;14.73;11.27;;;;;;;;;;5011211;28;20045;-75
2022/06/13 04:56:07;;;;;;;12.13;10.07;;;;;;;;;;5009905;28;20038;-74
2022/06/13 04:58:37;;;;;;;11.98;9.98;;;;;;;;;;5011178;28;20149;-74
2022/06/13 05:01:24;;;;;;;10.95;9.85;;;;;;;;;;5011669;28;20096;-74
2022/06/13 05:03:51;;;;;;;12.15;9.23;;;;;;;;;;4992597;28;20037;-76
2022/06/13 05:06:59;;;;;;;10.90;9.85;;;;;;;;;;5010478;28;20129;-76
2022/06/13 05:09:33;;;;;;;12.53;9.87;;;;;;;;;;5013473;28;20053;-76
2022/06/13 05:12:18;;;;;;;10.65;9.57;;;;;;;;;;5023007;28;20285;-75
2022/06/13 05:14:56;;;;;;;9.90;9.13;;;;;;;;;;5007356;28;20108;-75
2022/06/13 05:17:40;;;;;;;12.45;9.27;;;;;;;;;;5009675;28;20029;-76
2022/06/13 05:20:18;;;;;;;15.10;9.70;;;;;;;;;;5017931;28;20103;-75
2022/06/13 05:23:05;;;;;;;10.88;9.88;;;;;;;;;;5011975;28;20050;-76
2022/06/13 05:25:44;;;;;;;11.45;9.55;;;;;;;;;;5009150;28;20061;-76
2022/06/13 05:28:12;;;;;;;9.02;8.43;;;;;;;;;;5007031;28;20060;-75
2022/06/13 05:30:43;;;;;;;11.57;10.38;;;;;;;;;;5009883;28;20118;-75
2022/06/13 05:33:14;;;;;;;11.57;9.27;;;;;;;;;;5013838;28;20072;-75
2022/06/13 05:35:43;;;;;;;10.20;9.18;;;;;;;;;;5007513;28;20038;-76
2022/06/13 05:38:19;;;;;;;10.98;9.13;;;;;;;;;;5016916;28;20026;-75
2022/06/13 05:40:45;;;;;;;13.88;9.50;;;;;;;;;;5010191;28;20053;-75
2022/06/13 05:43:12;;;;;;;11.88;9.65;;;;;;;;;;5009953;28;20056;-76
2022/06/13 05:45:42;;;;;;;12.73;9.70;;;;;;;;;;5008868;28;20040;-76
2022/06/13 05:48:13;;;;;;;13.60;9.77;;;;;;;;;;5012888;28;20042;-75
2022/06/13 05:50:38;;;;;;;13.73;8.73;;;;;;;;;;5009702;28;20037;-75
2022/06/13 05:53:05;;;;;;;10.75;8.55;;;;;;;;;;5010353;28;20374;-74
2022/06/13 05:55:31;;;;;;;11.25;8.35;;;;;;;;;;5017337;28;20108;-75
2022/06/13 05:57:57;;;;;;;11.57;8.40;;;;;;;;;;5010066;28;20080;-75
2022/06/13 06:00:26;;;;;;;11.98;8.65;;;;;;;;;;5009636;28;20042;-75
2022/06/13 06:02:51;;;;;;;;;;;;;;;;;;5016916;28;20409;-75
2022/06/13 06:05:17;;;;;;;10.38;7.95;;;;;;;;;;5009991;28;19913;-75
2022/06/13 06:07:43;;;;;;;8.68;7.88;;;;;;;;;;5009654;28;20045;-74
2022/06/13 06:10:17;;;;;;;8.32;7.50;;;;;;;;;;5013726;28;20029;-74
2022/06/13 06:12:43;;;;;;;10.65;7.50;;;;;;;;;;5011350;28;20049;-75
2022/06/13 06:15:09;;;;;;;9.45;7.18;;;;;;;;;;5009419;28;20042;-74
2022/06/13 06:17:34;;;;;;;9.25;7.28;;;;;;;;;;5010642;28;20025;-74
2022/06/13 06:20:00;;;;;;;8.00;7.18;;;;;;;;;;5015642;28;20674;-75
2022/06/13 06:22:25;;;;;;;11.27;7.72;;;;;;;;;;5010956;28;20061;-74
2022/06/13 06:24:51;;;;;;;13.68;7.72;;;;;;;;;;5009309;28;20049;-74
2022/06/13 06:27:17;;;;;;;7.32;6.70;;;;;;;;;;5010888;28;20474;-74
2022/06/13 06:29:42;;;;;;;14.73;7.55;;;;;;;;;;5015638;28;20073;-74
2022/06/13 06:32:08;;;;;;;11.73;7.38;;;;;;;;;;5012718;28;20033;-74
2022/06/13 06:34:35;;;;;;;7.70;7.00;;;;;;;;;;5012380;28;20520;-75
2022/06/13 06:37:01;;;;;;;12.27;7.10;;;;;;;;;;5012702;28;20022;-74
2022/06/13 06:39:26;;;;;;;14.38;7.32;;;;;;;;;;5014419;28;20044;-74
2022/06/13 06:41:52;;;;;;;9.95;7.20;;;;;;;;;;5010596;28;20073;-74
2022/06/13 06:44:18;;;;;;;7.55;6.85;;;;;;;;;;5008731;28;20479;-74
2022/06/13 06:46:44;;;;;;;9.32;6.72;;;;;;;;;;5009638;28;20053;-74
2022/06/13 06:49:10;;;;;;;8.10;7.22;;;;;;;;;;5018483;28;20056;-74
2022/06/13 06:51:35;;;;;;;8.05;6.90;;;;;;;;;;5008886;28;20041;-74
2022/06/13 07:02:13;;;;;;;10.95;8.75;;;;;;;;;;5003504;28;20500;-74
2022/06/13 07:04:38;;;;;;;11.15;7.15;;;;;;;;;;5015430;28;20061;-74
2022/06/13 07:07:04;;;;;;;10.73;7.65;;;;;;;;;;5008438;28;20068;-74
2022/06/13 07:09:30;;;;;;;8.85;6.70;;;;;;;;;;5008923;28;20050;-74
2022/06/13 07:11:56;;;;;;;8.85;7.75;;;;;;;;;;5009723;28;20044;-73
2022/06/13 07:14:27;;;;;;;7.97;6.95;;;;;;;;;;5012274;28;20029;-74
2022/06/13 07:16:54;;;;;;;7.72;6.45;;;;;;;;;;5010868;28;20034;-74
2022/06/13 07:19:19;;;;;;;11.32;6.72;;;;;;;;;;5008713;28;20529;-73
2022/06/13 07:21:45;;;;;;;8.93;6.80;;;;;;;;;;5008079;28;20045;-73
2022/06/13 07:24:12;;;;;;;11.07;6.60;;;;;;;;;;5015036;28;20038;-74
2022/06/13 07:26:38;;;;;;;9.52;6.70;;;;;;;;;;5007923;28;20076;-74
2022/06/13 07:29:05;;;;;;;6.57;5.95;;;;;;;;;;5005632;28;20041;-74
2022/06/13 07:31:36;;;;;;;7.15;6.45;;;;;;;;;;5017921;28;20034;-74
2022/06/13 07:34:02;;;;;;;7.35;6.07;;;;;;;;;;5008252;28;20458;-74
2022/06/13 07:36:28;;;;;;;7.78;6.28;;;;;;;;;;5008701;28;20022;-74
2022/06/13 07:38:53;;;;;;;7.95;5.90;;;;;;;;;;5009640;28;20147;-74
2022/06/13 07:41:21;;;;;;;8.07;6.40;;;;;;;;;;5015123;28;20037;-73
2022/06/13 07:43:49;;;;;;;6.75;6.28;;;;;;;;;;5007898;28;20041;-74
2022/06/13 07:46:15;;;;;;;9.88;6.22;;;;;;;;;;5008309;28;20640;-73
2022/06/13 07:48:40;;;;;;;6.78;6.07;;;;;;;;;;5009419;28;20089;-74
2022/06/13 07:51:07;;;;;;;6.35;5.68;;;;;;;;;;4996580;28;20038;-75
2022/06/13 07:53:34;;;;;;;9.48;6.35;;;;;;;;;;5006383;28;20048;-74
2022/06/13 07:56:02;;;;;;;8.68;6.20;;;;;;;;;;5006102;28;20034;-75
2022/06/13 07:58:33;;;;;;;8.23;6.33;;;;;;;;;;5013252;28;20041;-74
2022/06/13 08:00:59;;;;;;;15.55;6.68;;;;;;;;;;5007703;28;20085;-74
2022/06/13 08:03:29;;;;;;;7.32;6.28;;;;;;;;;;5014736;28;20522;-74
2022/06/13 08:05:56;;;;;;;7.07;6.22;;;;;;;;;;5007812;28;20076;-74
2022/06/13 08:08:22;;;;;;;9.65;6.18;;;;;;;;;;5007472;28;20099;-74
2022/06/13 08:10:49;;;;;;;8.52;6.53;;;;;;;;;;5011767;28;20037;-74
2022/06/13 08:13:17;;;;;;;10.38;6.30;;;;;;;;;;5007497;28;20033;-74
2022/06/13 08:15:43;;;;;;;10.23;6.60;;;;;;;;;;5007831;28;20037;-74
2022/06/13 08:18:11;;;;;;;8.00;6.00;;;;;;;;;;5014442;28;20036;-74
2022/06/13 08:20:37;;;;;;;7.70;5.93;;;;;;;;;;5007281;28;20378;-74
2022/06/13 08:23:03;;;;;;;9.10;6.85;;;;;;;;;;5007596;28;20472;-74
2022/06/13 08:25:32;;;;;;;7.78;5.93;;;;;;;;;;5005528;28;20448;-74
2022/06/13 08:27:59;;;;;;;7.03;6.03;;;;;;;;;;5013672;28;20092;-74
2022/06/13 08:30:30;;;;;;;7.53;6.13;;;;;;;;;;5007159;28;20392;-74
2022/06/13 08:32:55;;;;;;;10.10;6.22;;;;;;;;;;5005874;28;20058;-74
2022/06/13 08:35:21;;;;;;;8.05;5.72;;;;;;;;;;5016753;28;20478;-73
2022/06/13 08:37:47;;;;;;;6.88;5.70;;;;;;;;;;5009473;28;20037;-72
2022/06/13 08:40:13;;;;;;;7.45;6.20;;;;;;;;;;5005662;28;20037;-74
2022/06/13 08:42:43;;;;;;;7.65;6.15;;;;;;;;;;5005245;28;20030;-74
2022/06/13 08:45:26;;;;;;;10.55;6.45;;;;;;;;;;5004314;28;20124;-74
2022/06/13 08:48:05;;;;;;;9.15;6.60;;;;;;;;;;5008847;28;20034;-74
2022/06/13 08:50:40;;;;;;;9.48;6.45;;;;;;;;;;5012740;28;20573;-74
2022/06/13 08:53:21;;;;;;;10.15;6.50;;;;;;;;;;5005113;28;20641;-73
2022/06/13 08:55:57;;;;;;;8.57;6.70;;;;;;;;;;4998590;28;20088;-73
2022/06/13 08:58:29;;;;;;;8.23;7.00;;;;;;;;;;5006675;28;20129;-73
2022/06/13 09:01:03;;;;;;;8.02;6.80;;;;;;;;;;5006856;28;20490;-73
2022/06/13 09:04:05;;;;;;;8.32;7.53;;;;;;;;;;5004332;28;20076;-73
2022/06/13 09:06:40;;;;;;;8.20;7.07;;;;;;;;;;5013495;28;20121;-74
2022/06/13 09:09:09;;;;;;;8.10;6.85;;;;;;;;;;5008139;28;20515;-74
2022/06/13 09:11:42;;;;;;;8.65;6.97;;;;;;;;;;5010686;28;20049;-74
2022/06/13 09:14:32;;;;;;;7.38;6.75;;;;;;;;;;5008902;28;20120;-73
2022/06/13 09:17:11;;;;;;;8.68;7.28;;;;;;;;;;5010800;28;20038;-74
2022/06/13 09:20:00;;;;;;;10.13;7.13;;;;;;;;;;5010417;28;20142;-73
2022/06/13 09:22:42;;;;;;;8.40;6.50;;;;;;;;;;5013122;28;20042;-75
2022/06/13 09:25:16;;;;;;;10.55;6.47;;;;;;;;;;5014835;28;20597;-74
2022/06/13 09:27:54;;;;;;;8.77;7.15;;;;;;;;;;5008760;28;20076;-74
2022/06/13 09:30:34;;;;;;;8.45;7.25;;;;;;;;;;5007852;28;20365;-74
2022/06/13 09:33:07;;;;;;;7.85;7.15;;;;;;;;;;5014375;28;20103;-74
2022/06/13 09:35:38;;;;;;;7.47;6.85;;;;;;;;;;5009147;28;20088;-73
2022/06/13 09:38:16;;;;;;;10.52;7.45;;;;;;;;;;5012643;28;20132;-73
2022/06/13 09:41:00;;;;;;;8.18;7.40;;;;;;;;;;5009662;28;20034;-73
2022/06/13 09:43:55;;;;;;;7.78;6.38;;;;;;;;;;5016386;28;20045;-75
2022/06/13 09:46:36;;;;;;;9.25;7.07;;;;;;;;;;5008679;28;20045;-74
2022/06/13 09:49:16;;;;;;;7.25;6.55;;;;;;;;;;5005887;28;20041;-74
2022/06/13 09:51:50;;;;;;;7.13;6.47;;;;;;;;;;5012857;28;20040;-74
2022/06/13 09:54:41;;;;;;;8.43;7.10;;;;;;;;;;5012915;28;20099;-73
2022/06/13 09:57:29;;;;;;;7.57;6.53;;;;;;;;;;5020900;28;20120;-74
2022/06/13 10:00:08;;;;;;;8.70;7.17;;;;;;;;;;5009174;28;20030;-74
2022/06/13 10:02:40;;;;;;;7.18;6.47;;;;;;;;;;5009453;28;20292;-74
2022/06/13 10:05:32;;;;;;;8.02;6.50;;;;;;;;;;5013896;28;20030;-74
2022/06/13 10:08:09;;;;;;;8.13;6.20;;;;;;;;;;5021334;28;20084;-73
2022/06/13 10:10:59;;;;;;;7.25;6.32;;;;;;;;;;5008146;28;20037;-74
2022/06/13 10:13:27;;;;;;;6.82;5.75;;;;;;;;;;4974689;28;20485;-73
2022/06/13 10:16:08;;;;;;;7.05;5.68;;;;;;;;;;5010711;28;20052;-74
2022/06/13 10:19:00;;;;;;;7.65;5.25;;;;;;;;;;5009300;28;20080;-74
2022/06/13 10:21:37;;;;;;;7.30;4.85;;;;;;;;;;5008123;28;20383;-74
2022/06/13 10:24:15;;;;;;;6.13;5.10;;;;;;;;;;5012616;28;20117;-74
2022/06/13 10:27:19;;;;;;;7.97;5.95;;;;;;;;;;5009270;28;20397;-74
2022/06/13 10:30:27;;;;;;;8.05;5.18;;;;;;;;;;5014304;28;20058;-74
2022/06/13 10:33:33;;;;;;;6.68;5.60;;;;;;;;;;5002370;28;20057;-74
2022/06/13 10:36:28;;;;;;;7.20;5.18;;;;;;;;;;5008252;28;20056;-74
2022/06/13 10:39:02;;;;;;;8.77;5.15;;;;;;;;;;5002159;28;20046;-74
2022/06/13 10:41:29;;;;;;;8.48;6.20;;;;;;;;;;5015817;28;20036;-74
2022/06/13 10:43:57;;;;;;;7.22;5.43;;;;;;;;;;5009231;28;20070;-74
2022/06/13 10:46:23;;;;;;;5.93;5.28;;;;;;;;;;5008230;28;20079;-74
2022/06/13 10:48:55;;;;;;;7.55;6.13;;;;;;;;;;5009653;28;20046;-74
2022/06/13 10:51:22;;;;;;;6.45;5.95;;;;;;;;;;5012368;28;20096;-73
2022/06/13 10:53:57;;;;;;;6.68;6.18;;;;;;;;;;5008620;28;20037;-74
2022/06/13 10:56:29;;;;;;;6.72;6.07;;;;;;;;;;5008075;28;20109;-74
2022/06/13 10:58:58;;;;;;;7.63;6.10;;;;;;;;;;5014743;28;20033;-74
2022/06/13 11:01:26;;;;;;;10.45;5.30;;;;;;;;;;5008428;28;20612;-74
2022/06/13 11:03:57;;;;;;;7.15;5.68;;;;;;;;;;5008956;28;20045;-73
2022/06/13 11:06:31;;;;;;;5.60;5.10;;;;;;;;;;5008759;28;20072;-73
2022/06/13 11:08:59;;;;;;;7.57;5.50;;;;;;;;;;5028614;28;20049;-74
2022/06/13 11:11:30;;;;;;;5.50;4.95;;;;;;;;;;5013078;28;20504;-74
2022/06/13 11:13:56;;;;;;;6.80;5.25;;;;;;;;;;5007563;28;20150;-73
2022/06/13 11:22:43;;;;;;;5.85;5.45;;;;;;;;;;5009076;28;20099;-77
2022/06/13 11:25:11;;;;;;;;;;;;;;;;;;5007430;28;20038;-76
2022/06/13 11:27:40;;;;;;;6.63;5.10;;;;;;;;;;5017172;28;20395;-75
2022/06/13 11:30:24;;;;;;;;;;;;;;;;;;5012105;28;20548;-77
2022/06/13 11:33:23;;;;;;;6.68;5.85;;;;;;;;;;5012276;28;19914;-75
2022/06/13 11:35:50;;;;;;;6.57;5.97;;;;;;;;;;5017709;28;20033;-77
2022/06/13 11:38:36;;;;;;;7.57;5.95;;;;;;;;;;5014315;28;20160;-77
2022/06/13 11:41:05;;;;;;;6.38;5.68;;;;;;;;;;5008389;28;20029;-76
2022/06/13 11:43:39;;;;;;;6.75;6.13;;;;;;;;;;5007933;28;20045;-77
2022/06/13 11:46:27;;;;;;;6.13;5.50;;;;;;;;;;5012601;28;20029;-77
2022/06/13 11:48:55;;;;;;;8.68;5.78;;;;;;;;;;5024765;28;20133;-76
2022/06/13 11:51:24;;;;;;;6.00;5.50;;;;;;;;;;5026756;28;20038;-79
2022/06/13 11:53:52;;;;;;;8.10;6.28;;;;;;;;;;5012877;28;20026;-76
2022/06/13 11:56:31;;;;;;;7.05;5.40;;;;;;;;;;5010544;28;20033;-76
2022/06/13 11:59:04;;;;;;;6.68;5.93;;;;;;;;;;5008730;28;20402;-77
2022/06/13 12:01:34;;;;;;;7.30;6.22;;;;;;;;;;5013187;28;20068;-77
2022/06/13 12:04:18;;;;;;;6.95;5.68;;;;;;;;;;5007197;28;20630;-77
2022/06/13 12:07:20;;;;;;;6.28;5.78;;;;;;;;;;5012827;28;20046;-75
2022/06/13 12:09:52;;;;;;;6.70;6.10;;;;;;;;;;5005298;28;20438;-74
2022/06/13 12:12:18;;;;;;;7.30;5.80;;;;;;;;;;5017772;28;20505;-74
2022/06/13 12:14:44;;;;;;;6.40;5.80;;;;;;;;;;5009633;28;20092;-75
2022/06/13 12:17:22;;;;;;;6.57;5.95;;;;;;;;;;5006165;28;20040;-75
2022/06/13 12:20:00;;;;;;;7.68;5.32;;;;;;;;;;5011892;28;20489;-74
2022/06/13 12:22:35;;;;;;;6.77;5.67;;;;;;;;;;5011621;28;20535;-76
2022/06/13 12:25:09;;;;;;;8.52;5.85;;;;;;;;;;5007734;28;20688;-74
2022/06/13 12:27:38;;;;;;;7.15;5.68;;;;;;;;;;5008324;28;20084;-75
2022/06/13 12:30:22;;;;;;;6.82;5.80;;;;;;;;;;5014713;28;20493;-75
2022/06/13 12:33:29;;;;;;;6.93;6.32;;;;;;;;;;5009641;28;20072;-75
2022/06/13 12:36:16;;;;;;;7.30;6.03;;;;;;;;;;4964465;28;20054;-75
2022/06/13 12:38:56;;;;;;;8.40;6.40;;;;;;;;;;5014122;28;20034;-75
2022/06/13 12:41:31;;;;;;;7.38;6.70;;;;;;;;;;5011409;28;20088;-75
2022/06/13 12:44:29;;;;;;;7.68;6.47;;;;;;;;;;5006980;28;20034;-76
2022/06/13 12:47:44;;;;;;;6.40;5.82;;;;;;;;;;5010166;28;20052;-75
2022/06/13 12:50:21;;;;;;;7.22;5.97;;;;;;;;;;4928272;29;20135;-75
2022/06/13 12:53:40;;;;;;;8.32;6.10;;;;;;;;;;4930892;29;20052;-75
2022/06/13 12:56:20;;;;;;;6.95;6.25;;;;;;;;;;4866927;29;20131;-74
2022/06/13 12:59:24;;;;;;;6.35;5.85;;;;;;;;;;4868909;29;20606;-74
2022/06/13 13:02:17;;;;;;;6.95;6.03;;;;;;;;;;4817815;29;20526;-75
2022/06/13 13:04:54;;;;;;;6.93;6.18;;;;;;;;;;4876820;29;20128;-75
2022/06/13 13:07:35;;;;;;;7.70;6.15;;;;;;;;;;4865358;29;20081;-74
2022/06/13 13:10:44;;;;;;;6.05;5.55;;;;;;;;;;4868161;29;20048;-74
2022/06/13 13:13:30;;;;;;;6.45;5.90;;;;;;;;;;4864358;29;20081;-75
2022/06/13 13:16:06;;;;;;;6.07;5.57;;;;;;;;;;4878908;29;20555;-74
2022/06/13 13:18:45;;;;;;;6.22;5.70;;;;;;;;;;4869191;29;20067;-74
2022/06/13 13:21:13;;;;;;;;;;;;;;;;;;4869921;29;20085;-75
2022/06/13 13:23:52;;;;;;;7.40;5.85;;;;;;;;;;4880222;29;19921;-75
2022/06/13 13:26:20;;;;;;;5.75;5.32;;;;;;;;;;4910715;28;20050;-75
2022/06/13 13:28:55;;;;;;;5.60;5.30;;;;;;;;;;4965572;28;20087;-75
2022/06/13 13:31:34;;;;;;;6.05;5.55;;;;;;;;;;5004145;28;20042;-75
2022/06/13 13:34:22;;;;;;;6.35;5.85;;;;;;;;;;5006987;28;20416;-75
2022/06/13 13:37:02;;;;;;;6.50;5.97;;;;;;;;;;5004164;28;20038;-74
2022/06/13 13:39:46;;;;;;;7.13;5.75;;;;;;;;;;5004358;28;20042;-75
2022/06/13 13:42:18;;;;;;;6.10;5.60;;;;;;;;;;5010194;28;20068;-75
2022/06/13 13:45:01;;;;;;;6.28;5.68;;;;;;;;;;5004520;28;20132;-74
2022/06/13 13:47:28;;;;;;;6.30;5.78;;;;;;;;;;5004493;28;20061;-75
2022/06/13 13:50:00;;;;;;;6.10;5.50;;;;;;;;;;5003065;28;20030;-75
2022/06/13 13:52:39;;;;;;;6.10;5.60;;;;;;;;;;5014154;28;20116;-74
2022/06/13 13:55:17;;;;;;;6.80;6.20;;;;;;;;;;5007126;28;20125;-75
2022/06/13 13:57:48;;;;;;;6.47;5.95;;;;;;;;;;5004240;28;20030;-75
2022/06/13 14:00:20;;;;;;;6.53;6.03;;;;;;;;;;5016514;28;20067;-75
2022/06/13 14:03:03;;;;;;;6.20;5.60;;;;;;;;;;5011814;28;20401;-74
2022/06/13 14:05:43;;;;;;;11.02;6.20;;;;;;;;;;5009827;28;20037;-74
2022/06/13 14:08:10;;;;;;;6.38;5.88;;;;;;;;;;5001875;28;20044;-74
2022/06/13 14:10:43;;;;;;;5.65;5.20;;;;;;;;;;5012176;28;20057;-75
2022/06/13 14:13:17;;;;;;;6.50;5.90;;;;;;;;;;5007026;28;20718;-74
2022/06/13 14:15:49;;;;;;;6.65;6.05;;;;;;;;;;5014715;28;20068;-74
2022/06/13 14:18:21;;;;;;;6.70;6.10;;;;;;;;;;5012155;28;20628;-74
2022/06/13 14:20:48;;;;;;;7.03;6.38;;;;;;;;;;5011063;28;20037;-75
2022/06/13 14:23:19;;;;;;;7.35;6.20;;;;;;;;;;5011224;28;20026;-74
2022/06/13 14:25:45;;;;;;;6.40;5.80;;;;;;;;;;5008338;28;20041;-75
2022/06/13 14:28:16;;;;;;;8.18;6.00;;;;;;;;;;5012960;28;20088;-74
2022/06/13 14:31:08;;;;;;;6.68;5.55;;;;;;;;;;5011272;28;20515;-74
2022/06/13 14:36:52;;;;;;;6.30;5.70;;;;;;;;;;5019642;28;20033;-75
2022/06/13 14:39:26;;;;;;;6.00;5.50;;;;;;;;;;5013131;28;20033;-75
2022/06/13 14:41:52;;;;;;;6.90;6.28;;;;;;;;;;5005879;28;20579;-74
2022/06/13 14:44:32;;;;;;;7.80;6.40;;;;;;;;;;5014937;28;20034;-73
2022/06/13 14:47:13;;;;;;;6.82;6.13;;;;;;;;;;5009193;28;20066;-73
2022/06/13 14:49:56;;;;;;;6.05;4.80;;;;;;;;;;5011149;28;20037;-73
2022/06/13 14:52:24;;;;;;;5.78;5.28;;;;;;;;;;5020508;28;20040;-73
2022/06/13 14:55:02;;;;;;;6.03;5.35;;;;;;;;;;5007951;28;20037;-74
2022/06/13 14:57:29;;;;;;;6.13;5.63;;;;;;;;;;5011297;28;20046;-74
2022/06/13 15:00:15;;;;;;;6.13;5.53;;;;;;;;;;5008509;28;20043;-74
2022/06/13 15:02:56;;;;;;;5.68;5.15;;;;;;;;;;5009560;28;20154;-74
2022/06/13 15:05:31;;;;;;;5.47;4.97;;;;;;;;;;5008495;28;20067;-74
2022/06/13 15:08:39;;;;;;;5.97;5.47;;;;;;;;;;5017601;28;20025;-74
2022/06/13 15:11:14;;;;;;;5.78;5.28;;;;;;;;;;4941428;28;20171;-74
2022/06/13 15:13:41;;;;;;;6.18;5.55;;;;;;;;;;4945314;28;20387;-74
2022/06/13 15:16:10;;;;;;;6.63;5.60;;;;;;;;;;4951842;28;20061;-75
2022/06/13 15:18:39;;;;;;;10.07;6.05;;;;;;;;;;4938518;28;20038;-73
2022/06/13 15:21:06;;;;;;;;;;;;;;;;;;4943320;28;20439;-74
2022/06/13 15:23:38;;;;;;;5.95;5.65;;;;;;;;;;4948165;28;19913;-74
2022/06/13 15:26:05;;;;;;;6.70;5.60;;;;;;;;;;4948905;28;20046;-74
2022/06/13 15:29:15;;;;;;;6.50;5.90;;;;;;;;;;4944985;28;20039;-73
2022/06/13 15:31:53;;;;;;;6.55;5.90;;;;;;;;;;4932994;28;20498;-73
2022/06/13 15:34:29;;;;;;;6.20;5.43;;;;;;;;;;4947925;28;20145;-74
2022/06/13 15:37:05;;;;;;;5.80;5.40;;;;;;;;;;4947289;28;20046;-74
2022/06/13 15:39:37;;;;;;;6.57;5.90;;;;;;;;;;4938286;28;20051;-74
2022/06/13 15:42:14;;;;;;;6.35;5.75;;;;;;;;;;4946556;28;20050;-73